• Join FlightAware (Why Join?)
  • Login
  • US Flag 
11:51AM EDT


 

Airport Tracker/Info


-or-


 

Live Flight TrackerFlight Track Log ✈ N541JD ✈ 09-Jan-2014 ✈ KEKY - KAEX

Flight Track Log - Related Links

Times and Time Zones

All times are in EST time to prevent confusion due to time zone crossing. See the N541JD flight status page for this flight to view local times or setup timezone preferences in your user account.

Time Position Orientation Groundspeed Altitude Reporting Facility
EST Latitude Longitude Course Direction KTS MPH feet Rate Location/Type
01:57PM 33.3406 -86.9356 238° Southwest 143 165 2,200  Level Atlanta Center
01:57PM 33.3342 -86.9478 238° Southwest 146 168 2,400 1,020 Climbing Atlanta Center
01:58PM 33.3144 -86.9819 235° Southwest 134 154 3,500 1,140 Climbing Atlanta Center
01:59PM 33.2950 -87.0111 231° Southwest 117 135 4,700 1,020 Climbing Atlanta Center
02:00PM 33.2733 -87.0403 228° Southwest 105 121 5,600 840 Climbing Atlanta Center
02:01PM 33.2581 -87.0719 240° Southwest 113 130 6,400 780 Climbing Atlanta Center
02:02PM 33.2364 -87.1061 233° Southwest 116 133 7,200 660 Climbing Atlanta Center
02:03PM 33.2169 -87.1350 231° Southwest 117 135 7,800 420 Climbing Atlanta Center
02:04PM 33.2039 -87.1544 231° Southwest 129 148 8,000 240 Climbing Atlanta Center
02:04PM 33.1972 -87.1692 242° Southwest 132 152 8,100 60 Climbing Atlanta Center
02:05PM 33.1797 -87.1983 234° Southwest 145 167 8,100  Level Atlanta Center
02:05PM 33.1689 -87.2103 223° Southwest 149 171 8,100  Level Atlanta Center
02:06PM 33.1581 -87.2322 239° Southwest 145 167 8,100 -60 Level Atlanta Center
02:07PM 33.1319 -87.2686 229° Southwest 145 167 8,000  Descending Atlanta Center
02:08PM 33.1103 -87.3050 235° Southwest 145 167 8,100  Climbing Atlanta Center
02:09PM 33.0864 -87.3364 228° Southwest 145 167 8,100  Level Atlanta Center
02:10PM 33.0644 -87.3775 238° Southwest 139 160 8,100  Level Atlanta Center
02:11PM 33.0406 -87.4114 230° Southwest 139 160 8,100  Level Atlanta Center
02:12PM 33.0167 -87.4475 232° Southwest 147 169 8,100  Level Atlanta Center
02:13PM 32.9947 -87.4839 234° Southwest 147 169 8,100  Level Atlanta Center
02:14PM 32.9708 -87.5200 232° Southwest 147 169 8,100  Level Atlanta Center
02:15PM 32.9486 -87.5589 236° Southwest 147 169 8,100  Level Atlanta Center
02:16PM 32.9247 -87.5950 232° Southwest 152 175 8,100  Level Atlanta Center
02:17PM 32.8975 -87.6394 234° Southwest 140 161 8,100  Level Memphis Center
02:18PM 32.8742 -87.6747 232° Southwest 137 158 8,100  Level Memphis Center
02:19PM 32.8503 -87.7119 233° Southwest 139 160 8,100  Level Memphis Center
02:20PM 32.8225 -87.7553 225° Southwest 138 159 8,100  Level Memphis Center
02:21PM 32.8090 -87.7592 225° Southwest  Level FlightAware Approximate
02:21PM 32.7989 -87.7928 233° Southwest 140 161 8,100  Level Memphis Center
02:22PM 32.7756 -87.8289 232° Southwest 140 161 8,100  Level Memphis Center
02:23PM 32.7519 -87.8647 232° Southwest 138 159 8,100  Level Memphis Center
02:24PM 32.7278 -87.9036 234° Southwest 138 159 8,100  Level Memphis Center
02:25PM 32.7036 -87.9394 231° Southwest 139 160 8,100  Level Memphis Center
02:26PM 32.6811 -87.9756 233° Southwest 138 159 8,100  Level Memphis Center
02:27PM 32.6522 -88.0189 232° Southwest 139 160 8,100  Level Memphis Center
02:28PM 32.6292 -88.0547 233° Southwest 138 159 8,100  Level Memphis Center
02:29PM 32.6064 -88.0903 233° Southwest 137 158 8,100  Level Memphis Center
02:30PM 32.5836 -88.1261 233° Southwest 137 158 8,100  Level Memphis Center
02:31PM 32.5603 -88.1617 232° Southwest 137 158 8,100  Level Memphis Center
02:33PM 32.5319 -88.2050 232° Southwest 138 159 8,100 -60 Level Memphis Center
02:34PM 32.5086 -88.2417 233° Southwest 139 160 8,000 -60 Descending Memphis Center
02:35PM 32.4847 -88.2775 232° Southwest 140 161 8,000  Level Memphis Center
02:36PM 32.4592 -88.3167 232° Southwest 139 160 8,000  Level Memphis Center
02:37PM 32.4364 -88.3517 232° Southwest 137 158 8,000  Level Memphis Center
02:38PM 32.4131 -88.3869 232° Southwest 136 157 8,000  Level Memphis Center
02:39PM 32.3911 -88.4219 233° Southwest 134 154 8,000  Level Memphis Center
02:40PM 32.3681 -88.4581 233° Southwest 136 157 8,000  Level Memphis Center
02:41PM 32.3314 -88.4914 218° Southwest 140 161 8,000  Level Memphis Center
02:42PM 32.3019 -88.5194 219° Southwest 138 159 8,000  Level Memphis Center
02:43PM 32.2722 -88.5481 219° Southwest 137 158 8,000  Level Memphis Center
02:44PM 32.2389 -88.5794 219° Southwest 139 160 8,000  Level Memphis Center
02:45PM 32.2086 -88.6072 218° Southwest 138 159 8,000  Level Memphis Center
02:46PM 32.1792 -88.6356 219° Southwest 138 159 8,000  Level Memphis Center
02:47PM 32.1489 -88.6631 218° Southwest 137 158 8,000  Level Memphis Center
02:48PM 32.1200 -88.6917 220° Southwest 138 159 8,000  Level Memphis Center
02:49PM 32.0825 -88.7244 217° Southwest 139 160 8,000  Level Memphis Center
02:50PM 32.0528 -88.7531 219° Southwest 139 160 8,000  Level Memphis Center
02:51PM 32.0222 -88.7817 218° Southwest 139 160 8,000  Level Memphis Center
02:52PM 31.9914 -88.8100 218° Southwest 141 162 8,000  Level Memphis Center
02:53PM 31.9611 -88.8372 217° Southwest 139 160 8,000  Level Memphis Center
02:54PM 31.9261 -88.8703 219° Southwest 141 162 8,000  Level Memphis Center
02:55PM 31.8953 -88.8986 218° Southwest 141 162 8,000  Level Memphis Center
02:56PM 31.8697 -88.9225 218° Southwest 142 163 8,000  Level Houston Center
02:57PM 31.8400 -88.9497 218° Southwest 139 160 8,000  Level Houston Center
02:58PM 31.8022 -88.9833 217° Southwest 142 163 8,000  Level Houston Center
02:59PM 31.7714 -89.0128 219° Southwest 142 163 8,000  Level Houston Center
03:00PM 31.7403 -89.0411 218° Southwest 143 165 8,000  Level Houston Center
03:01PM 31.7086 -89.0706 218° Southwest 144 166 8,000  Level Houston Center
03:02PM 31.6767 -89.0994 218° Southwest 144 166 8,000  Level Houston Center
03:03PM 31.6400 -89.1344 219° Southwest 143 165 8,000  Level Houston Center
03:04PM 31.6089 -89.1617 217° Southwest 141 162 8,000  Level Houston Center
03:05PM 31.5786 -89.1908 219° Southwest 141 162 8,000  Level Houston Center
03:06PM 31.5481 -89.2189 218° Southwest 140 161 8,000  Level Houston Center
03:08PM 31.5342 -89.2547 246° West 154 177 8,000  Level Houston Center
03:09PM 31.5286 -89.3106 263° West 147 169 8,000  Level Houston Center
03:10PM 31.5261 -89.3561 266° West 142 163 8,000  Level Houston Center
03:11PM 31.5244 -89.4028 268° West 143 165 8,000  Level Houston Center
03:12PM 31.5214 -89.4503 266° West 145 167 8,000  Level Houston Center
03:13PM 31.5189 -89.4972 266° West 145 167 8,000  Level Houston Center
03:14PM 31.5167 -89.5519 267° West 144 166 8,000  Level Houston Center
03:15PM 31.5144 -89.5989 267° West 144 166 8,000  Level Houston Center
03:16PM 31.5114 -89.6458 266° West 145 167 8,000  Level Houston Center
03:17PM 31.5089 -89.6928 266° West 145 167 8,000  Level Houston Center
03:18PM 31.5069 -89.7400 267° West 145 167 8,000  Level Houston Center
03:19PM 31.5044 -89.7875 266° West 147 169 8,000  Level Houston Center
03:20PM 31.5011 -89.8442 266° West 147 169 8,000  Level Houston Center
03:21PM 31.4986 -89.8911 266° West 146 168 8,000  Level Houston Center
03:22PM 31.4967 -89.9375 267° West 145 167 8,000  Level Houston Center
03:23PM 31.4936 -89.9833 266° West 143 165 8,000  Level Houston Center
03:24PM 31.4917 -90.0308 267° West 145 167 8,000  Level Houston Center
03:25PM 31.4886 -90.0872 266° West 145 167 8,000  Level Houston Center
03:26PM 31.4853 -90.1353 265° West 147 169 8,000  Level Houston Center
03:27PM 31.4839 -90.1822 268° West 146 168 8,000  Level Houston Center
03:28PM 31.4794 -90.2292 264° West 145 167 8,000  Level Houston Center
03:29PM 31.4761 -90.2772 265° West 147 169 8,000  Level Houston Center
03:30PM 31.4736 -90.3333 267° West 146 168 8,000  Level Houston Center
03:31PM 31.4708 -90.3800 266° West 146 168 8,000  Level Houston Center
03:32PM 31.4686 -90.4278 267° West 146 168 8,000  Level Houston Center
03:33PM 31.4656 -90.4739 266° West 145 167 8,000  Level Houston Center
03:34PM 31.4633 -90.5203 267° West 144 166 8,000  Level Houston Center
03:35PM 31.4603 -90.5672 266° West 144 166 8,000  Level Houston Center
03:37PM 31.4578 -90.6164 267° West 143 165 8,000  Level Houston Center
03:38PM 31.4553 -90.6683 267° West 143 165 8,000  Level Houston Center
03:39PM 31.4517 -90.7139 265° West 147 169 8,000  Level Houston Center
03:40PM 31.4481 -90.7597 265° West 144 166 8,000  Level Houston Center
03:41PM 31.4456 -90.8089 267° West 143 165 8,000  Level Houston Center
03:42PM 31.4431 -90.8539 266° West 141 162 8,100  Climbing Houston Center
03:43PM 31.4397 -90.9056 266° West 140 161 8,100  Level Houston Center
03:44PM 31.4361 -90.9525 265° West 142 163 8,100  Level Houston Center
03:45PM 31.4336 -90.9994 266° West 144 166 8,100  Level Houston Center
03:46PM 31.4294 -91.0489 264° West 144 166 8,100  Level Houston Center
03:47PM 31.4267 -91.1011 266° West 143 165 8,100  Level Houston Center
03:48PM 31.4242 -91.1467 266° West 141 162 8,100  Level Houston Center
03:49PM 31.4211 -91.1925 266° West 141 162 8,100  Level Houston Center
03:50PM 31.4181 -91.2383 266° West 141 162 8,100 -120 Level Houston Center
03:51PM 31.4153 -91.2658 263° West 140 161 8,000  Descending Houston Center
03:51PM 31.4150 -91.2822 269° West 138 159 8,100 60 Climbing Houston Center
03:52PM 31.4114 -91.3378 266° West 140 161 8,100  Level Houston Center
03:53PM 31.4083 -91.3828 265° West 140 161 8,100 -60 Level Houston Center
03:54PM 31.4067 -91.4256 267° West 139 160 8,000  Descending Houston Center
03:54PM 31.4050 -91.4275 225° Southwest 139 160 8,100  Climbing Houston Center
03:55PM 31.4039 -91.4722 268° West 138 159 8,000  Descending Houston Center
03:55PM 31.4017 -91.4725 186° South 139 160 8,100  Climbing Houston Center
03:56PM 31.4011 -91.5214 269° West 141 162 8,000  Descending Houston Center
03:56PM 31.3994 -91.5178 118° Southeast 139 160 8,100  Climbing Houston Center
03:57PM 31.3981 -91.5656 268° West 141 162 8,000  Descending Houston Center
03:57PM 31.3967 -91.5731 258° West 141 162 8,100  Climbing Houston Center
03:58PM 31.3933 -91.6150 265° West 140 161 8,000  Descending Houston Center
03:58PM 31.3931 -91.6175 263° West 139 160 8,100  Climbing Houston Center
03:59PM 31.3903 -91.6592 266° West 139 160 8,000  Descending Houston Center
03:59PM 31.3903 -91.6631 270° West 140 161 8,100  Climbing Houston Center
04:00PM 31.3869 -91.6986 264° West 141 162 8,000  Descending Houston Center
04:00PM 31.3875 -91.7092 274° West 141 162 8,100  Climbing Houston Center
04:01PM 31.3842 -91.7453 264° West 139 160 8,000  Descending Houston Center
04:01PM 31.3844 -91.7533 272° West 139 160 8,100 -120 Climbing Houston Center
04:02PM 31.3811 -91.7919 264° West 142 163 7,900 -240 Descending Houston Center
04:02PM 31.3808 -91.8006 268° West 141 162 7,900 -480 Level Houston Center
04:03PM 31.3769 -91.8486 265° West 156 180 7,400 -600 Descending Houston Center
04:03PM 31.3761 -91.8611 266° West 149 171 7,300 -540 Descending Houston Center
04:04PM 31.3722 -91.9003 263° West 157 181 6,900 -420 Descending Houston Center
04:04PM 31.3728 -91.9114 273° West 154 177 6,900 -360 Level Houston Center
04:06PM 31.3697 -91.9625 266° West 156 180 6,500 -660 Descending Houston Center
04:06PM 31.3669 -92.0033 265° West 153 176 5,800 -720 Descending Houston Center
04:07PM 31.3661 -92.0131 264° West 156 180 5,800 -600 Level Houston Center
04:07PM 31.3622 -92.0525 263° West 153 176 5,200 -600 Descending Houston Center
04:08PM 31.3628 -92.0614 274° West 154 177 5,200 -660 Level Houston Center
04:08PM 31.3597 -92.1067 265° West 154 177 4,500 -780 Descending Houston Center
04:09PM 31.3583 -92.1219 264° West 154 177 4,400 -720 Descending Houston Center
04:09PM 31.3547 -92.1558 263° West 157 181 3,900 -420 Descending Houston Center
04:10PM 31.3547 -92.1669 270° West 155 178 4,000 -600 Climbing Houston Center
04:10PM 31.3519 -92.2072 265° West 169 194 3,300 -780 Descending Houston Center
04:11PM 31.3506 -92.2278 265° West 162 186 3,200 -600 Descending Houston Center
04:11PM 31.3475 -92.2639 264° West 167 192 2,700 -600 Descending Houston Center
04:12PM 31.3469 -92.2817 268° West 165 190 2,600 -600 Descending Houston Center
04:12PM 31.3444 -92.3131 265° West 161 185 2,100 -540 Descending Houston Center
04:13PM 31.3425 -92.3336 264° West 164 189 2,100 -120 Level Houston Center
04:13PM 31.3397 -92.3672 264° West 153 176 2,000  Descending Houston Center
04:14PM 31.3397 -92.3822 270° West 158 182 2,100 -240 Climbing Houston Center
04:14PM 31.3450 -92.4106 282° West 145 167 1,800 -300 Descending Houston Center
04:15PM 31.3469 -92.4367 275° West 148 170 1,800 -120 Level Houston Center
04:15PM 31.3500 -92.4539 282° West 141 162 1,700  Descending Houston Center
04:16PM 31.3556 -92.4803 284° West 144 166 1,800 -240 Climbing Houston Center
04:16PM 31.3611 -92.4969 291° West 138 159 1,500 -300 Descending Houston Center
04:17PM 31.3719 -92.5200 299° West 141 162 1,500 -240 Level Houston Center
04:17PM 31.3786 -92.5369 295° West 139 160 1,300 -300 Descending Houston Center
04:18PM 31.3689 -92.5592 243° Southwest 137 158 1,200 -420 Descending Houston Center
04:18PM 31.3619 -92.5725 239° Southwest 114 131 900 -720 Descending Houston Center
04:19PM 31.3436 -92.5636 158° South 114 131 500 -600 Descending Houston Center
04:19PM 31.3403 -92.5622 160° South 75 86 300 -300 Descending Houston Center
04:20PM 31.3286 -92.5511 141° Southeast 90 104 200 -180 Descending Houston Center